KMHS/MHS METAR and TAF weather

Enter ICAO airport designator
Station Type Date Time Source
KMHS METAR 2019/10/14 05:56 UTC NOAA

KMHS 140556Z AUTO 00000KT 8SM CLR 03/M04 A2997 RMK AO2 SLP161 T00281039 10178 20028 53012


Station Type Date Time Source
KMHS Decoded METAR 2019/10/14 05:56 UTC NOAA

MOUNT SHASTA, CA, United States (KMHS) 41-19N 122-19W 1078M
Oct 14, 2019 - 01:56 AM EDT / 2019.10.14 0556 UTC
Wind: Calm:0
Visibility: 8 mile(s):0
Sky conditions: clear
Temperature: 37.0 F (2.8 C)
Dew Point: 25.0 F (-3.9 C)
Relative Humidity: 61%
Pressure (altimeter): 29.97 in. Hg (1014 hPa)
Pressure tendency: 0.04 inches (1.2 hPa) higher than three hours ago
ob: KMHS 140556Z AUTO 00000KT 8SM CLR 03/M04 A2997 RMK AO2 SLP161 T00281039 10178 20028 53012
cycle: 6

Station Type Date Time Source
KMHS TAF UTC NOAA

Error!

Example: see airport list